Time;durP1;ratioP1;P1;durP2;ratioP2;P2;SDS_P1;SDS_P2;PMS_P1;PMS_P2;Temp;Humidity;BMP_temperature;BMP_pressure;BME280_temperature;BME280_humidity;BME280_pressure;Samples;Min_cycle;Max_cycle;Signal;HPM_P1;HPM_P2
2021/10/22 00:00:45;;;;;;;;;140.00;138.50;21.50;42.30;;;;;;4844212;29;8840;-68
2021/10/22 00:03:11;;;;;;;;;131.00;127.50;21.50;42.60;;;;;;4844726;29;8804;-68
2021/10/22 00:05:38;;;;;;;;;108.00;104.50;21.50;42.60;;;;;;4844385;29;8816;-69
2021/10/22 00:08:03;;;;;;;;;118.50;116.00;21.40;42.40;;;;;;4844330;29;8835;-68
2021/10/22 00:10:30;;;;;;;;;108.50;106.00;21.30;42.40;;;;;;4844376;29;8882;-68
2021/10/22 00:12:56;;;;;;;;;107.25;104.75;21.30;42.60;;;;;;4844256;29;8804;-67
2021/10/22 00:15:22;;;;;;;;;108.00;105.25;21.30;42.50;;;;;;4844495;29;8810;-67
2021/10/22 00:17:48;;;;;;;;;101.75;99.50;21.40;42.60;;;;;;4844292;29;8907;-69
2021/10/22 00:20:13;;;;;;;;;110.00;108.50;21.40;42.70;;;;;;4844165;29;8927;-67
2021/10/22 00:22:39;;;;;;;;;106.50;102.75;21.40;42.90;;;;;;4844452;29;9029;-66
2021/10/22 00:25:06;;;;;;;;;101.00;99.25;21.40;43.00;;;;;;4844196;29;8835;-68
2021/10/22 00:27:32;;;;;;;;;107.00;103.25;21.40;42.90;;;;;;4844021;29;8906;-66
2021/10/22 00:29:58;;;;;;;;;95.00;91.50;21.40;42.80;;;;;;4844018;29;9274;-67
2021/10/22 00:32:24;;;;;;;;;78.75;70.25;21.40;42.90;;;;;;4843894;29;8826;-67
2021/10/22 00:34:50;;;;;;;;;78.00;69.50;21.40;41.90;;;;;;4843973;29;8906;-67
2021/10/22 00:37:16;;;;;;;;;76.50;70.25;21.40;41.50;;;;;;4843564;29;8938;-66
2021/10/22 00:39:42;;;;;;;;;79.00;71.25;21.50;42.00;;;;;;4843855;29;8823;-67
2021/10/22 00:42:08;;;;;;;;;72.75;66.50;21.40;42.40;;;;;;4843842;29;8839;-67
2021/10/22 00:44:34;;;;;;;;;75.50;67.75;21.40;42.20;;;;;;4843829;29;8816;-66
2021/10/22 00:47:00;;;;;;;;;73.50;65.50;21.40;42.40;;;;;;4843840;29;8827;-67
2021/10/22 00:49:26;;;;;;;;;68.25;58.25;21.40;42.10;;;;;;4843511;29;8836;-67
2021/10/22 00:51:52;;;;;;;;;75.00;64.75;21.50;42.00;;;;;;4843857;29;8815;-67
2021/10/22 00:54:18;;;;;;;;;71.75;63.75;21.40;42.20;;;;;;4843440;29;8867;-67
2021/10/22 00:56:47;;;;;;;;;77.25;68.50;21.40;42.20;;;;;;4843630;29;8903;-67
2021/10/22 00:59:13;;;;;;;;;74.75;63.75;21.40;42.20;;;;;;4843925;29;8808;-67
2021/10/22 01:01:40;;;;;;;;;68.00;56.00;21.40;41.50;;;;;;4843628;29;9436;-67
2021/10/22 01:04:06;;;;;;;;;70.50;59.25;21.40;41.30;;;;;;4843583;29;8926;-67
2021/10/22 01:06:36;;;;;;;;;72.50;59.50;21.40;41.80;;;;;;4843834;29;9003;-68
2021/10/22 01:09:03;;;;;;;;;76.50;65.25;21.40;41.90;;;;;;4843682;29;8932;-67
2021/10/22 01:11:30;;;;;;;;;70.00;58.00;21.40;42.50;;;;;;4843505;29;8804;-67
2021/10/22 01:13:56;;;;;;;;;70.25;57.25;21.50;42.30;;;;;;4843442;29;8800;-67
2021/10/22 01:16:22;;;;;;;;;73.00;60.25;21.40;42.70;;;;;;4843740;29;8788;-68
2021/10/22 01:18:50;;;;;;;;;76.75;69.25;21.50;43.10;;;;;;4843418;29;8816;-67
2021/10/22 01:21:16;;;;;;;;;74.25;67.25;21.50;42.90;;;;;;4843479;29;8792;-68
2021/10/22 01:23:42;;;;;;;;;72.25;63.75;21.40;42.70;;;;;;4843302;29;8823;-68
2021/10/22 01:26:07;;;;;;;;;72.25;60.25;21.40;42.60;;;;;;4843363;29;8796;-68
2021/10/22 01:28:33;;;;;;;;;70.25;60.25;21.40;42.80;;;;;;4843604;29;8836;-66
2021/10/22 01:30:59;;;;;;;;;73.75;61.50;21.40;43.00;;;;;;4843343;29;8838;-67
2021/10/22 01:33:25;;;;;;;;;66.25;56.00;21.40;43.30;;;;;;4843636;29;8872;-67
2021/10/22 01:35:51;;;;;;;;;74.00;60.75;21.40;43.10;;;;;;4843311;29;8800;-66
2021/10/22 01:38:20;;;;;;;;;68.00;55.50;21.30;42.70;;;;;;4843549;29;8803;-66
2021/10/22 01:40:47;;;;;;;;;74.50;60.75;21.30;42.70;;;;;;4843557;29;8910;-67
2021/10/22 01:43:13;;;;;;;;;78.00;66.25;21.30;42.80;;;;;;4843311;29;8792;-66
2021/10/22 01:45:39;;;;;;;;;68.75;56.25;21.30;43.10;;;;;;4843241;29;8808;-67
2021/10/22 01:48:05;;;;;;;;;67.00;55.25;21.30;43.10;;;;;;4843327;29;8891;-67
2021/10/22 01:50:31;;;;;;;;;58.25;49.25;21.30;43.00;;;;;;4845226;29;8815;-67
2021/10/22 01:52:57;;;;;;;;;64.00;53.25;21.30;42.70;;;;;;4846971;29;9478;-67
2021/10/22 01:55:24;;;;;;;;;65.75;54.75;21.30;42.30;;;;;;4846528;29;8874;-66
2021/10/22 01:57:50;;;;;;;;;63.75;52.50;21.30;42.00;;;;;;4846898;29;8799;-66
2021/10/22 02:00:16;;;;;;;;;67.25;54.00;21.30;42.30;;;;;;4846728;29;8831;-66
2021/10/22 02:02:41;;;;;;;;;67.75;54.50;21.30;42.40;;;;;;4846683;29;8807;-67
2021/10/22 02:05:07;;;;;;;;;81.75;78.00;21.30;42.70;;;;;;4846490;29;8804;-67
2021/10/22 02:07:33;;;;;;;;;80.25;75.25;21.30;42.70;;;;;;4846707;29;8796;-66
2021/10/22 02:09:59;;;;;;;;;83.00;77.00;21.30;42.70;;;;;;4846574;29;9467;-68
2021/10/22 02:12:25;;;;;;;;;78.00;74.50;21.30;42.80;;;;;;4846700;29;8819;-67
2021/10/22 02:14:51;;;;;;;;;71.25;58.00;21.30;43.00;;;;;;4846343;29;8830;-67
2021/10/22 02:17:17;;;;;;;;;69.25;55.50;21.20;43.00;;;;;;4846273;29;8808;-66
2021/10/22 02:19:43;;;;;;;;;65.25;53.50;21.30;43.00;;;;;;4846353;29;8812;-66
2021/10/22 02:22:08;;;;;;;;;55.00;46.00;21.30;42.50;;;;;;4846265;29;8823;-67
2021/10/22 02:24:36;;;;;;;;;55.25;46.00;21.20;42.40;;;;;;4846373;29;8839;-67
2021/10/22 02:27:02;;;;;;;;;54.25;46.00;21.20;42.60;;;;;;4846480;29;8799;-67
2021/10/22 02:29:28;;;;;;;;;55.75;47.75;21.20;42.50;;;;;;4846075;29;8831;-66
2021/10/22 02:31:54;;;;;;;;;47.25;41.00;21.30;42.40;;;;;;4846292;29;8808;-67
2021/10/22 02:34:19;;;;;;;;;51.25;44.00;21.30;42.40;;;;;;4846114;29;9688;-66
2021/10/22 02:36:45;;;;;;;;;33.67;32.33;21.30;42.50;;;;;;4846047;29;8792;-67
2021/10/22 02:39:11;;;;;;;;;43.00;38.33;21.20;41.90;;;;;;4845954;29;8823;-67
2021/10/22 02:41:37;;;;;;;;;45.67;40.67;21.20;42.00;;;;;;4846062;29;8796;-67
2021/10/22 02:44:03;;;;;;;;;41.75;36.75;21.30;42.10;;;;;;4846235;29;8811;-67
2021/10/22 02:46:28;;;;;;;;;47.33;42.00;21.30;42.10;;;;;;4846224;29;8850;-67
2021/10/22 02:48:56;;;;;;;;;41.00;37.00;21.10;42.40;;;;;;4846069;29;8819;-67
2021/10/22 02:51:22;;;;;;;;;42.67;37.67;20.90;42.60;;;;;;4846135;29;8800;-67
2021/10/22 02:53:48;;;;;;;;;42.00;37.33;21.00;42.00;;;;;;4845686;29;8890;-67
2021/10/22 02:56:13;;;;;;;;;39.00;35.33;21.10;42.00;;;;;;4846085;29;8906;-66
2021/10/22 02:58:39;;;;;;;;;35.00;32.67;21.20;41.90;;;;;;4845715;29;8803;-67
2021/10/22 03:01:05;;;;;;;;;37.67;34.67;21.20;41.80;;;;;;4845573;29;8788;-67
2021/10/22 03:03:32;;;;;;;;;41.33;37.33;21.20;41.30;;;;;;4845594;29;8792;-67
2021/10/22 03:05:57;;;;;;;;;42.33;38.00;21.20;41.30;;;;;;4845597;29;8804;-66
2021/10/22 03:08:23;;;;;;;;;41.00;36.33;21.30;41.20;;;;;;4845429;29;8948;-67
2021/10/22 03:10:49;;;;;;;;;43.67;38.67;21.30;41.50;;;;;;4845768;29;8819;-67
2021/10/22 03:13:15;;;;;;;;;43.00;39.33;21.30;42.00;;;;;;4845387;29;9002;-67
2021/10/22 03:15:41;;;;;;;;;43.67;38.67;21.40;42.30;;;;;;4845347;29;8796;-66
2021/10/22 03:18:06;;;;;;;;;41.67;37.33;21.30;41.90;;;;;;4844446;29;8828;-67
2021/10/22 03:20:32;;;;;;;;;42.33;39.33;21.40;41.70;;;;;;4845363;29;8867;-66
2021/10/22 03:22:58;;;;;;;;;53.75;46.50;21.30;41.60;;;;;;4845186;29;8812;-67
2021/10/22 03:25:24;;;;;;;;;52.50;43.50;21.20;42.00;;;;;;4845550;29;8890;-66
2021/10/22 03:27:51;;;;;;;;;48.33;41.33;21.10;42.40;;;;;;4845340;29;8984;-67
2021/10/22 03:30:17;;;;;;;;;53.00;45.00;21.10;42.50;;;;;;4845333;29;8890;-67
2021/10/22 03:32:43;;;;;;;;;52.25;45.00;21.10;42.60;;;;;;4845326;29;8914;-67
2021/10/22 03:35:09;;;;;;;;;46.00;39.25;21.10;42.50;;;;;;4845021;29;8828;-68
2021/10/22 03:37:35;;;;;;;;;50.00;43.00;21.10;42.50;;;;;;4845001;29;8816;-67
2021/10/22 03:40:01;;;;;;;;;50.75;43.50;21.10;42.50;;;;;;4853694;29;8913;-67
2021/10/22 03:42:27;;;;;;;;;48.00;41.25;21.10;42.40;;;;;;4848448;29;8821;-68
2021/10/22 03:44:52;;;;;;;;;51.00;43.75;21.10;42.40;;;;;;4863342;29;8793;-66
2021/10/22 03:47:18;;;;;;;;;51.00;43.75;21.20;42.50;;;;;;4860054;29;9495;-67
2021/10/22 03:49:44;;;;;;;;;50.50;43.50;21.20;42.90;;;;;;4844704;29;9468;-67
2021/10/22 03:52:10;;;;;;;;;52.75;44.75;21.20;43.00;;;;;;4844703;29;8800;-67
2021/10/22 03:54:36;;;;;;;;;51.25;43.00;21.20;43.00;;;;;;4844356;29;8876;-67
2021/10/22 03:57:01;;;;;;;;;52.00;44.00;21.20;42.30;;;;;;4844430;29;8828;-67
2021/10/22 03:59:27;;;;;;;;;51.75;44.50;21.20;42.30;;;;;;4844579;29;9479;-68
2021/10/22 04:01:53;;;;;;;;;53.00;45.00;21.20;42.30;;;;;;4844552;29;8871;-67
2021/10/22 04:04:19;;;;;;;;;55.50;46.75;21.10;42.50;;;;;;4844466;29;8819;-67
2021/10/22 04:06:44;;;;;;;;;49.75;42.75;21.10;42.40;;;;;;4844458;29;8811;-68
2021/10/22 04:09:11;;;;;;;;;48.75;42.00;21.10;42.40;;;;;;4844378;29;8858;-67
2021/10/22 04:11:36;;;;;;;;;50.75;43.75;21.00;42.70;;;;;;4844397;29;8831;-67
2021/10/22 04:14:03;;;;;;;;;53.00;45.50;21.10;42.80;;;;;;4843888;29;8800;-67
2021/10/22 04:16:29;;;;;;;;;50.75;43.25;21.10;42.60;;;;;;4844303;29;8804;-67
2021/10/22 04:18:55;;;;;;;;;49.00;42.25;21.00;42.60;;;;;;4844241;29;9550;-67
2021/10/22 04:21:21;;;;;;;;;50.00;43.50;21.00;42.60;;;;;;4844440;29;8827;-66
2021/10/22 04:23:47;;;;;;;;;47.75;41.00;21.00;42.60;;;;;;4844304;29;8816;-67
2021/10/22 04:26:13;;;;;;;;;45.50;39.50;21.10;42.50;;;;;;4844359;29;8828;-66
2021/10/22 04:28:39;;;;;;;;;52.50;44.75;21.10;42.80;;;;;;4844080;29;8848;-67
2021/10/22 04:31:05;;;;;;;;;60.00;50.25;21.10;42.70;;;;;;4844069;29;8792;-67
2021/10/22 04:33:31;;;;;;;;;55.00;46.00;21.10;43.10;;;;;;4844268;29;8799;-67
2021/10/22 04:35:57;;;;;;;;;53.50;46.50;21.10;42.90;;;;;;4843981;29;8910;-67
2021/10/22 04:40:54;;;;;;;;;54.75;46.50;21.10;43.30;;;;;;4851977;29;9587;-66
2021/10/22 04:43:21;;;;;;;;;58.00;48.50;21.10;43.50;;;;;;4859414;29;8797;-67
2021/10/22 04:45:51;;;;;;;;;57.75;49.25;21.10;43.60;;;;;;4859765;29;8832;-67
2021/10/22 04:48:19;;;;;;;;;55.50;47.75;21.10;44.70;;;;;;4849388;29;8837;-68
2021/10/22 04:50:52;;;;;;;;;55.75;47.50;21.10;43.60;;;;;;4851894;29;8820;-64
2021/10/22 04:53:26;;;;;;;;;55.50;46.75;21.10;43.50;;;;;;4846674;29;8792;-66
2021/10/22 04:55:53;;;;;;;;;57.75;48.00;21.00;43.70;;;;;;4855957;29;8830;-66
2021/10/22 04:58:19;;;;;;;;;55.50;47.25;21.00;43.70;;;;;;4858502;29;8936;-69
2021/10/22 05:00:45;;;;;;;;;56.25;48.25;21.00;43.80;;;;;;4860642;29;8900;-65
2021/10/22 05:03:11;;;;;;;;;63.50;52.75;21.00;43.60;;;;;;4861327;29;8913;-67
2021/10/22 05:05:37;;;;;;;;;59.00;49.75;21.00;43.30;;;;;;4857813;29;8813;-63
2021/10/22 05:08:03;;;;;;;;;61.50;51.25;21.00;42.90;;;;;;4848894;29;8930;-64
2021/10/22 05:10:29;;;;;;;;;55.00;46.50;21.10;43.00;;;;;;4854234;29;8812;-65
2021/10/22 05:12:55;;;;;;;;;58.00;49.25;21.10;43.10;;;;;;4851234;29;8801;-66
2021/10/22 05:15:21;;;;;;;;;55.25;46.00;21.10;43.30;;;;;;4852060;29;8929;-63
2021/10/22 05:17:46;;;;;;;;;55.25;46.25;21.10;43.30;;;;;;4860783;29;8832;-63
2021/10/22 05:20:12;;;;;;;;;56.50;47.50;21.10;43.40;;;;;;4854640;29;8844;-63
2021/10/22 05:22:39;;;;;;;;;61.75;50.50;21.10;43.60;;;;;;4861394;29;8818;-63
2021/10/22 05:25:09;;;;;;;;;57.25;48.75;21.20;44.00;;;;;;4848195;29;8863;-64
2021/10/22 05:27:35;;;;;;;;;59.75;50.00;21.10;44.10;;;;;;4847027;29;8792;-65
2021/10/22 05:30:05;;;;;;;;;54.50;46.00;21.20;44.30;;;;;;4847204;29;8895;-63
2021/10/22 05:32:31;;;;;;;;;61.00;51.75;21.10;44.30;;;;;;4858128;29;8813;-66
2021/10/22 05:34:57;;;;;;;;;62.00;50.75;21.10;44.60;;;;;;4865426;29;8785;-65
2021/10/22 05:37:23;;;;;;;;;55.00;46.75;21.10;44.60;;;;;;4865263;29;8814;-62
2021/10/22 05:39:49;;;;;;;;;59.25;49.50;21.10;44.80;;;;;;4865551;29;8852;-72
2021/10/22 05:42:15;;;;;;;;;68.75;56.75;21.10;45.10;;;;;;4865471;29;8880;-67
2021/10/22 05:44:41;;;;;;;;;62.75;51.50;21.10;45.50;;;;;;4865260;29;9539;-68
2021/10/22 05:47:07;;;;;;;;;66.50;54.25;21.10;45.90;;;;;;4858148;29;8819;-71
2021/10/22 05:49:33;;;;;;;;;57.25;48.25;21.10;45.70;;;;;;4846613;29;8836;-70
2021/10/22 05:51:59;;;;;;;;;62.50;51.25;21.10;46.00;;;;;;4856993;29;8813;-69
2021/10/22 05:54:24;;;;;;;;;62.75;52.75;21.10;46.20;;;;;;4851073;29;8908;-63
2021/10/22 05:56:51;;;;;;;;;56.00;47.50;21.00;46.80;;;;;;4855316;29;8824;-64
2021/10/22 05:59:17;;;;;;;;;54.25;46.00;20.90;47.20;;;;;;4846800;29;8816;-62
2021/10/22 06:01:43;;;;;;;;;52.00;44.00;20.90;47.20;;;;;;4858055;29;8824;-64
2021/10/22 06:04:09;;;;;;;;;48.00;41.25;20.80;47.50;;;;;;4851249;29;9490;-62
2021/10/22 06:06:35;;;;;;;;;50.00;42.50;20.80;47.90;;;;;;4852962;29;8846;-63
2021/10/22 06:09:01;;;;;;;;;49.00;41.75;20.80;48.00;;;;;;4853898;29;8820;-63
2021/10/22 06:11:27;;;;;;;;;50.25;43.50;20.60;48.20;;;;;;4854061;29;8790;-61
2021/10/22 06:13:53;;;;;;;;;49.25;42.25;20.70;48.50;;;;;;4864867;29;8801;-63
2021/10/22 06:16:19;;;;;;;;;46.75;39.75;20.70;48.50;;;;;;4864733;29;8837;-61
2021/10/22 06:18:48;;;;;;;;;47.00;40.25;20.80;48.60;;;;;;4864942;29;9726;-62
2021/10/22 06:21:27;;;;;;;;;43.50;38.75;20.80;48.60;;;;;;4864558;29;8801;-62
2021/10/22 06:24:02;;;;;;;;;50.25;43.00;20.70;48.90;;;;;;4858990;29;8837;-60
2021/10/22 06:26:36;;;;;;;;;34.33;33.67;20.60;48.90;;;;;;4864672;29;8861;-63
2021/10/22 06:29:04;;;;;;;;;34.00;33.00;20.60;48.70;;;;;;4864500;29;8821;-62
2021/10/22 06:31:30;;;;;;;;;31.67;31.67;20.60;48.60;;;;;;4864263;29;8813;-63
2021/10/22 06:33:58;;;;;;;;;28.33;28.33;20.70;48.30;;;;;;4864521;29;8785;-63
2021/10/22 06:36:24;;;;;;;;;24.00;24.00;20.80;47.90;;;;;;4859452;29;8816;-63
2021/10/22 06:38:50;;;;;;;;;23.33;23.33;20.80;49.00;;;;;;4854406;29;8812;-63
2021/10/22 06:41:17;;;;;;;;;28.00;27.33;20.80;47.90;;;;;;4854952;29;8818;-64
2021/10/22 06:43:44;;;;;;;;;23.00;23.00;20.80;48.20;;;;;;4851033;29;8820;-64
2021/10/22 06:46:12;;;;;;;;;35.67;34.33;20.80;48.20;;;;;;4845727;29;8815;-64
2021/10/22 06:48:39;;;;;;;;;28.67;28.67;20.80;48.30;;;;;;4846280;29;9486;-63
2021/10/22 06:51:07;;;;;;;;;26.67;26.00;20.70;48.30;;;;;;4853298;29;8789;-67
2021/10/22 06:53:33;;;;;;;;;25.67;25.67;20.70;48.30;;;;;;4850591;29;8819;-63
2021/10/22 06:55:59;;;;;;;;;33.00;33.00;20.70;48.60;;;;;;4845580;29;8824;-63
2021/10/22 06:58:25;;;;;;;;;28.00;28.00;20.70;48.40;;;;;;4861318;29;8845;-64
2021/10/22 07:00:51;;;;;;;;;25.00;25.00;20.60;48.90;;;;;;4863921;29;8783;-63
2021/10/22 07:03:20;;;;;;;;;29.67;29.67;20.50;48.90;;;;;;4863802;29;8797;-64
2021/10/22 07:08:25;;;;;;;;;31.67;30.67;20.60;49.00;;;;;;4863920;29;8817;-62
2021/10/22 07:10:52;;;;;;;;;30.00;30.00;20.60;49.10;;;;;;4863502;29;8805;-64
2021/10/22 07:13:20;;;;;;;;;37.00;34.00;20.60;49.30;;;;;;4863942;29;8789;-62
2021/10/22 07:15:46;;;;;;;;;34.67;33.67;20.60;49.50;;;;;;4859413;29;8816;-63
2021/10/22 07:18:12;;;;;;;;;40.33;35.67;20.70;49.70;;;;;;4853474;29;9651;-63
2021/10/22 07:20:39;;;;;;;;;36.67;33.67;20.70;49.60;;;;;;4851545;29;9599;-62
2021/10/22 07:23:10;;;;;;;;;31.33;31.33;20.80;49.50;;;;;;4853371;29;8810;-63
2021/10/22 07:25:39;;;;;;;;;37.00;34.00;20.70;49.70;;;;;;4855853;29;8866;-64
2021/10/22 07:28:14;;;;;;;;;40.33;36.00;20.70;49.90;;;;;;4846085;29;8967;-63
2021/10/22 07:30:42;;;;;;;;;46.00;39.67;20.80;49.90;;;;;;4855862;29;8805;-62
2021/10/22 07:33:08;;;;;;;;;50.67;43.67;20.70;50.00;;;;;;4849286;29;9467;-63
2021/10/22 07:35:39;;;;;;;;;49.25;41.75;20.70;49.90;;;;;;4856853;29;9458;-62
2021/10/22 07:38:10;;;;;;;;;60.00;51.00;20.60;49.90;;;;;;4859334;29;8811;-62
2021/10/22 07:40:43;;;;;;;;;52.33;45.00;20.50;50.50;;;;;;4848878;29;8805;-62
2021/10/22 07:43:09;;;;;;;;;36.67;33.00;20.60;50.60;;;;;;4853780;29;8822;-62
2021/10/22 07:45:35;;;;;;;;;28.33;28.33;20.60;50.00;;;;;;4855649;29;8813;-63
2021/10/22 07:48:01;;;;;;;;;27.00;27.00;20.70;49.50;;;;;;4855364;29;8813;-62
2021/10/22 07:50:27;;;;;;;;;23.00;23.00;20.70;49.60;;;;;;4847135;29;8923;-61
2021/10/22 07:52:52;;;;;;;;;24.67;24.67;20.80;49.80;;;;;;4855837;29;8821;-63
2021/10/22 07:55:18;;;;;;;;;21.67;21.67;20.80;49.50;;;;;;4844274;29;8872;-62
2021/10/22 07:57:44;;;;;;;;;27.00;27.00;20.90;49.40;;;;;;4844640;29;8824;-62
2021/10/22 08:00:11;;;;;;;;;45.33;39.33;20.70;49.40;;;;;;4849052;29;8827;-65
2021/10/22 08:02:38;;;;;;;;;37.00;35.00;20.80;49.90;;;;;;4848580;29;8880;-64
2021/10/22 08:05:05;;;;;;;;;45.67;40.33;20.60;50.60;;;;;;4854046;29;8816;-64
2021/10/22 08:07:31;;;;;;;;;38.00;34.33;20.60;51.00;;;;;;4844416;29;9554;-65
2021/10/22 08:10:00;;;;;;;;;32.00;32.00;20.90;50.80;;;;;;4844164;29;8848;-64
2021/10/22 08:12:27;;;;;;;;;31.33;30.33;20.80;51.20;;;;;;4859549;29;8798;-63
2021/10/22 08:14:53;;;;;;;;;20.67;20.33;20.90;50.80;;;;;;4862472;29;8798;-62
2021/10/22 08:17:20;;;;;;;;;16.33;16.33;20.80;50.20;;;;;;4862775;29;8898;-62
2021/10/22 08:20:34;;;;;;;;;22.67;22.67;20.80;50.20;;;;;;4861838;29;8806;-64
2021/10/22 08:22:39;;;;;;;;;21.33;21.33;20.80;50.40;;;;;;4857067;29;8851;-63
2021/10/22 08:25:11;;;;;;;;;16.67;16.33;20.80;50.20;;;;;;4862269;29;8864;-62
2021/10/22 08:27:39;;;;;;;;;25.00;25.00;20.60;50.50;;;;;;4862083;29;8821;-63
2021/10/22 08:30:08;;;;;;;;;28.67;28.67;20.50;50.60;;;;;;4859830;29;8881;-64
2021/10/22 08:32:35;;;;;;;;;22.00;22.00;20.60;50.60;;;;;;4853212;29;8924;-62
2021/10/22 08:35:08;;;;;;;;;36.00;34.00;20.60;50.30;;;;;;4853226;29;8892;-62
2021/10/22 08:37:35;;;;;;;;;28.67;28.67;20.60;50.60;;;;;;4856027;29;8812;-63
2021/10/22 08:40:01;;;;;;;;;24.00;24.00;20.70;50.80;;;;;;4847649;29;8824;-63
2021/10/22 08:42:27;;;;;;;;;35.00;31.33;20.80;50.20;;;;;;4851748;29;8843;-63
2021/10/22 08:44:56;;;;;;;;;28.67;28.67;20.90;49.50;;;;;;4852597;29;8804;-63
2021/10/22 08:47:30;;;;;;;;;25.67;25.67;20.90;50.10;;;;;;4856634;29;8919;-60
2021/10/22 08:50:01;;;;;;;;;24.33;22.33;20.90;49.50;;;;;;4855326;29;8833;-60
2021/10/22 08:52:28;;;;;;;;;21.67;21.67;20.80;49.40;;;;;;4848960;29;8816;-62
2021/10/22 08:55:13;;;;;;;;;17.33;17.33;20.70;49.50;;;;;;4855823;29;8980;-62
2021/10/22 08:57:44;;;;;;;;;21.33;21.33;20.70;49.40;;;;;;4862012;29;9502;-62
2021/10/22 09:00:22;;;;;;;;;31.00;30.00;20.50;49.70;;;;;;4861825;29;8817;-65
2021/10/22 09:02:49;;;;;;;;;22.00;22.00;20.60;50.10;;;;;;4860283;29;8908;-63
2021/10/22 09:05:23;;;;;;;;;21.33;21.33;20.60;49.70;;;;;;4852208;29;8820;-61
2021/10/22 09:07:54;;;;;;;;;27.67;27.67;20.60;49.70;;;;;;4852782;29;8812;-64
2021/10/22 09:10:27;;;;;;;;;26.00;26.00;20.60;50.00;;;;;;4843453;29;8879;-63
2021/10/22 09:12:52;;;;;;;;;21.67;21.67;20.80;49.60;;;;;;4852814;29;8821;-63
2021/10/22 09:15:27;;;;;;;;;21.33;21.33;20.70;49.80;;;;;;4850329;29;8919;-63
2021/10/22 09:17:56;;;;;;;;;20.33;20.33;20.70;50.10;;;;;;4850201;29;8919;-63
2021/10/22 09:20:24;;;;;;;;;22.00;21.33;20.90;49.10;;;;;;4846503;29;8886;-63
2021/10/22 09:22:54;;;;;;;;;20.00;20.00;20.80;49.70;;;;;;4856915;29;8837;-64
2021/10/22 09:25:23;;;;;;;;;22.00;22.00;20.90;48.90;;;;;;4848328;29;8829;-63
2021/10/22 09:27:57;;;;;;;;;20.33;20.33;20.70;49.30;;;;;;4851457;29;8870;-63
2021/10/22 09:30:38;;;;;;;;;36.67;33.33;20.60;49.60;;;;;;4847331;29;8835;-65
2021/10/22 09:33:06;;;;;;;;;25.33;25.33;20.60;49.70;;;;;;4857103;29;8809;-64
2021/10/22 09:35:34;;;;;;;;;24.00;24.00;20.70;49.20;;;;;;4845995;29;8938;-64
2021/10/22 09:38:24;;;;;;;;;34.67;33.67;20.90;49.00;;;;;;4861722;29;8797;-65
2021/10/22 09:40:50;;;;;;;;;31.67;31.67;20.90;48.50;;;;;;4861558;29;8924;-63
2021/10/22 09:43:21;;;;;;;;;32.67;32.67;20.90;48.40;;;;;;4857080;29;8940;-65
2021/10/22 09:45:49;;;;;;;;;24.67;24.67;20.90;48.70;;;;;;4851781;29;8830;-64
2021/10/22 09:48:30;;;;;;;;;23.33;23.00;20.80;48.90;;;;;;4849728;29;8899;-64
2021/10/22 09:51:17;;;;;;;;;27.00;27.00;20.80;48.80;;;;;;4855313;29;8809;-64
2021/10/22 09:53:45;;;;;;;;;23.33;23.33;20.80;49.00;;;;;;4848293;29;8900;-63
2021/10/22 09:56:19;;;;;;;;;24.00;24.00;20.80;49.10;;;;;;4849938;29;8938;-64
2021/10/22 09:58:54;;;;;;;;;32.33;31.67;20.70;48.90;;;;;;4853189;29;8958;-63
2021/10/22 10:01:20;;;;;;;;;38.00;35.00;20.60;49.40;;;;;;4842051;29;8808;-62
2021/10/22 10:03:46;;;;;;;;;33.67;31.00;20.60;49.60;;;;;;4843061;29;8796;-63
2021/10/22 10:06:12;;;;;;;;;34.67;33.00;20.60;49.10;;;;;;4853183;29;8914;-63
2021/10/22 10:08:40;;;;;;;;;37.00;33.67;20.60;49.00;;;;;;4842974;29;8912;-62
2021/10/22 10:11:08;;;;;;;;;24.67;24.67;20.60;48.20;;;;;;4848852;29;9468;-63
2021/10/22 10:13:35;;;;;;;;;33.33;32.33;20.50;48.60;;;;;;4852522;29;8804;-63
2021/10/22 10:16:09;;;;;;;;;36.33;35.33;20.60;48.10;;;;;;4861522;29;8801;-64
2021/10/22 10:18:44;;;;;;;;;24.33;24.33;20.70;48.50;;;;;;4857633;29;8805;-62
2021/10/22 10:21:14;;;;;;;;;30.67;30.00;20.90;47.60;;;;;;4861753;29;8828;-63
2021/10/22 10:23:45;;;;;;;;;19.33;19.33;21.00;47.80;;;;;;4864394;29;8817;-63
2021/10/22 10:26:24;;;;;;;;;26.00;26.00;21.10;47.50;;;;;;4854579;29;8911;-64
2021/10/22 10:28:51;;;;;;;;;28.00;28.00;21.00;47.60;;;;;;4849303;29;9550;-64
2021/10/22 10:31:38;;;;;;;;;28.00;28.00;21.10;47.40;;;;;;4854066;29;9516;-64
2021/10/22 10:34:41;;;;;;;;;22.67;22.67;21.20;46.80;;;;;;4845911;29;8857;-64
2021/10/22 10:37:26;;;;;;;;;20.00;20.00;21.60;46.20;;;;;;4834948;29;9453;-64
2021/10/22 10:39:57;;;;;;;;;16.67;16.67;21.80;45.30;;;;;;4864204;29;8813;-63
2021/10/22 10:42:28;;;;;;;;;24.00;24.00;22.00;45.10;;;;;;4864176;29;8793;-64
2021/10/22 10:44:59;;;;;;;;;18.00;18.00;21.90;44.70;;;;;;4864151;29;8897;-63
2021/10/22 10:47:28;;;;;;;;;18.67;18.67;21.90;44.90;;;;;;4864049;29;8781;-64
2021/10/22 10:49:54;;;;;;;;;20.33;20.33;21.80;45.20;;;;;;4863976;29;8825;-64
2021/10/22 10:52:37;;;;;;;;;23.00;23.00;21.50;45.80;;;;;;4863822;29;8831;-64
2021/10/22 10:55:29;;;;;;;;;30.00;30.00;21.60;45.50;;;;;;4848771;29;9004;-64
2021/10/22 10:58:07;;;;;;;;;29.67;29.67;21.70;45.70;;;;;;4854484;29;8934;-65
2021/10/22 11:00:42;;;;;;;;;26.00;26.00;21.80;45.90;;;;;;4864016;29;8845;-64
2021/10/22 11:03:21;;;;;;;;;45.33;39.67;22.00;45.30;;;;;;4864279;29;8801;-63
2021/10/22 11:05:51;;;;;;;;;34.67;33.00;22.20;44.40;;;;;;4863672;29;8805;-64
2021/10/22 11:08:21;;;;;;;;;28.67;28.67;22.30;44.50;;;;;;4857543;29;8992;-64
2021/10/22 11:11:10;;;;;;;;;40.67;36.33;22.80;44.40;;;;;;4856166;29;8801;-65
2021/10/22 11:13:49;;;;;;;;;34.67;33.00;23.00;43.20;;;;;;4855037;29;8821;-65
2021/10/22 11:16:21;;;;;;;;;27.67;27.67;23.10;42.40;;;;;;4856493;29;8810;-65
2021/10/22 11:19:06;;;;;;;;;24.33;24.33;23.40;43.00;;;;;;4854717;29;8825;-65
2021/10/22 11:21:38;;;;;;;;;34.67;32.33;23.60;41.90;;;;;;4850211;29;8790;-65
2021/10/22 11:24:06;;;;;;;;;35.33;32.00;23.60;41.60;;;;;;4849593;29;8860;-65
2021/10/22 11:26:33;;;;;;;;;35.67;33.33;23.30;41.90;;;;;;4851301;29;8820;-65
2021/10/22 11:29:12;;;;;;;;;26.00;26.00;23.30;42.10;;;;;;4851049;29;8861;-65
2021/10/22 11:31:45;;;;;;;;;29.33;29.33;23.20;42.00;;;;;;4853016;29;8868;-64
2021/10/22 11:34:26;;;;;;;;;23.67;23.67;23.30;42.40;;;;;;4860974;29;9666;-65
2021/10/22 11:37:07;;;;;;;;;22.33;22.33;23.20;42.00;;;;;;4862881;29;9508;-65
2021/10/22 11:39:37;;;;;;;;;35.00;33.67;23.10;42.00;;;;;;4854937;29;8881;-65
2021/10/22 11:42:18;;;;;;;;;8.00;8.00;23.10;42.20;;;;;;4857311;29;8888;-64
2021/10/22 11:44:49;;;;;;;;;31.00;30.67;22.70;42.50;;;;;;4855109;29;8824;-64
2021/10/22 11:47:16;;;;;;;;;26.67;26.67;22.70;42.80;;;;;;4855839;29;8917;-64
2021/10/22 11:49:43;;;;;;;;;32.33;31.33;22.70;42.60;;;;;;4848936;29;8851;-64
2021/10/22 11:52:14;;;;;;;;;30.33;30.33;22.70;42.70;;;;;;4853061;29;8974;-66
2021/10/22 11:54:49;;;;;;;;;32.33;31.67;22.60;42.90;;;;;;4856850;29;8868;-70
2021/10/22 11:57:20;;;;;;;;;28.33;28.33;22.60;42.90;;;;;;4847794;29;8815;-69
2021/10/22 11:59:51;;;;;;;;;31.33;30.67;22.60;44.60;;;;;;4843460;29;8891;-70
2021/10/22 12:02:19;;;;;;;;;27.00;27.00;22.70;43.40;;;;;;4847753;29;8805;-68
2021/10/22 12:04:46;;;;;;;;;33.33;32.33;22.60;43.40;;;;;;4851174;29;8825;-68
2021/10/22 12:07:12;;;;;;;;;25.67;25.67;22.70;43.60;;;;;;4857659;29;8839;-72
2021/10/22 12:09:43;;;;;;;;;32.00;31.67;22.80;42.90;;;;;;4856559;29;9509;-67
2021/10/22 12:12:10;;;;;;;;;32.00;31.00;22.80;42.70;;;;;;4852049;29;8896;-70
2021/10/22 12:14:38;;;;;;;;;37.33;34.67;22.80;42.80;;;;;;4848989;29;8818;-70
2021/10/22 12:17:06;;;;;;;;;34.67;33.33;22.80;43.00;;;;;;4854452;29;8813;-68
2021/10/22 12:19:33;;;;;;;;;42.00;37.33;22.80;42.80;;;;;;4854079;29;8832;-69
2021/10/22 12:21:59;;;;;;;;;30.67;30.67;22.80;43.10;;;;;;4856195;29;8821;-67
2021/10/22 12:24:37;;;;;;;;;39.00;36.00;22.70;42.70;;;;;;4854824;29;8833;-67
2021/10/22 12:27:07;;;;;;;;;41.00;37.00;22.70;43.50;;;;;;4858729;29;8800;-68
2021/10/22 12:29:59;;;;;;;;;34.00;33.33;22.80;43.20;;;;;;4852909;29;8864;-68
2021/10/22 12:32:38;;;;;;;;;34.67;32.33;22.80;43.20;;;;;;4846721;29;8816;-68
2021/10/22 12:35:10;;;;;;;;;29.00;29.00;22.80;43.30;;;;;;4844968;29;8903;-65
2021/10/22 12:37:37;;;;;;;;;40.67;36.67;22.70;42.90;;;;;;4862380;29;8885;-65
2021/10/22 12:40:22;;;;;;;;;38.67;35.67;22.60;43.40;;;;;;4862485;29;8904;-65
2021/10/22 12:43:13;;;;;;;;;33.67;33.00;22.70;43.40;;;;;;4861436;29;8819;-65
2021/10/22 12:45:48;;;;;;;;;42.67;37.33;22.60;43.50;;;;;;4860667;29;8849;-66
2021/10/22 12:48:19;;;;;;;;;32.33;31.67;22.60;43.20;;;;;;4851473;29;8822;-68